sensor_id;sensor_type;location;lat;lon;timestamp;temperature;humidity
66722;SHT31;53633;49.932;10.884;2023-04-22T00:01:20;9.93;80.52
66722;SHT31;53633;49.932;10.884;2023-04-22T00:03:47;9.92;80.96
66722;SHT31;53633;49.932;10.884;2023-04-22T00:06:13;9.95;80.72
66722;SHT31;53633;49.932;10.884;2023-04-22T00:08:40;10.02;81.07
66722;SHT31;53633;49.932;10.884;2023-04-22T00:11:07;9.95;81.28
66722;SHT31;53633;49.932;10.884;2023-04-22T00:13:33;9.91;81.28
66722;SHT31;53633;49.932;10.884;2023-04-22T00:16:00;9.92;80.91
66722;SHT31;53633;49.932;10.884;2023-04-22T00:18:29;9.92;81.08
66722;SHT31;53633;49.932;10.884;2023-04-22T00:20:56;9.88;81.02
66722;SHT31;53633;49.932;10.884;2023-04-22T00:23:22;9.89;80.97
66722;SHT31;53633;49.932;10.884;2023-04-22T00:25:50;9.92;80.75
66722;SHT31;53633;49.932;10.884;2023-04-22T00:28:16;9.88;80.89
66722;SHT31;53633;49.932;10.884;2023-04-22T00:30:43;9.77;82.06
66722;SHT31;53633;49.932;10.884;2023-04-22T00:33:09;9.79;82.11
66722;SHT31;53633;49.932;10.884;2023-04-22T00:35:37;9.65;82.03
66722;SHT31;53633;49.932;10.884;2023-04-22T00:38:04;9.55;82.58
66722;SHT31;53633;49.932;10.884;2023-04-22T00:40:31;9.47;82.64
66722;SHT31;53633;49.932;10.884;2023-04-22T00:42:59;9.58;82.38
66722;SHT31;53633;49.932;10.884;2023-04-22T00:45:25;9.59;82.33
66722;SHT31;53633;49.932;10.884;2023-04-22T00:47:52;9.58;82.32
66722;SHT31;53633;49.932;10.884;2023-04-22T00:50:19;9.64;82.23
66722;SHT31;53633;49.932;10.884;2023-04-22T00:52:47;9.67;82.21
66722;SHT31;53633;49.932;10.884;2023-04-22T00:55:14;9.62;82.24
66722;SHT31;53633;49.932;10.884;2023-04-22T00:57:41;9.58;82.36
66722;SHT31;53633;49.932;10.884;2023-04-22T01:00:09;9.55;82.35
66722;SHT31;53633;49.932;10.884;2023-04-22T01:02:36;9.58;82.36
66722;SHT31;53633;49.932;10.884;2023-04-22T01:05:03;9.55;82.33
66722;SHT31;53633;49.932;10.884;2023-04-22T01:07:29;9.52;82.36
66722;SHT31;53633;49.932;10.884;2023-04-22T01:09:58;9.50;82.24
66722;SHT31;53633;49.932;10.884;2023-04-22T01:12:24;9.47;82.52
66722;SHT31;53633;49.932;10.884;2023-04-22T01:14:51;9.48;82.88
66722;SHT31;53633;49.932;10.884;2023-04-22T01:17:18;9.41;83.11
66722;SHT31;53633;49.932;10.884;2023-04-22T01:19:45;9.34;82.91
66722;SHT31;53633;49.932;10.884;2023-04-22T01:22:12;9.40;83.03
66722;SHT31;53633;49.932;10.884;2023-04-22T01:24:41;9.47;82.70
66722;SHT31;53633;49.932;10.884;2023-04-22T01:27:08;9.47;82.55
66722;SHT31;53633;49.932;10.884;2023-04-22T01:29:35;9.44;82.34
66722;SHT31;53633;49.932;10.884;2023-04-22T01:32:03;9.38;82.80
66722;SHT31;53633;49.932;10.884;2023-04-22T01:34:30;9.44;83.05
66722;SHT31;53633;49.932;10.884;2023-04-22T01:36:57;9.41;83.34
66722;SHT31;53633;49.932;10.884;2023-04-22T01:39:24;9.37;83.36
66722;SHT31;53633;49.932;10.884;2023-04-22T01:41:52;9.57;83.18
66722;SHT31;53633;49.932;10.884;2023-04-22T01:44:19;9.62;83.14
66722;SHT31;53633;49.932;10.884;2023-04-22T01:46:45;9.51;83.58
66722;SHT31;53633;49.932;10.884;2023-04-22T01:49:12;9.47;83.99
66722;SHT31;53633;49.932;10.884;2023-04-22T01:51:39;9.43;83.91
66722;SHT31;53633;49.932;10.884;2023-04-22T01:54:05;9.43;83.51
66722;SHT31;53633;49.932;10.884;2023-04-22T01:56:32;9.38;83.58
66722;SHT31;53633;49.932;10.884;2023-04-22T01:59:00;9.50;83.72
66722;SHT31;53633;49.932;10.884;2023-04-22T02:01:27;9.45;83.85
66722;SHT31;53633;49.932;10.884;2023-04-22T02:03:53;9.36;84.20
66722;SHT31;53633;49.932;10.884;2023-04-22T02:06:20;9.36;84.36
66722;SHT31;53633;49.932;10.884;2023-04-22T02:08:47;9.30;84.66
66722;SHT31;53633;49.932;10.884;2023-04-22T02:11:13;9.16;85.55
66722;SHT31;53633;49.932;10.884;2023-04-22T02:13:40;9.06;86.03
66722;SHT31;53633;49.932;10.884;2023-04-22T02:16:08;9.00;86.41
66722;SHT31;53633;49.932;10.884;2023-04-22T02:18:35;8.93;86.92
66722;SHT31;53633;49.932;10.884;2023-04-22T02:21:02;8.89;87.14
66722;SHT31;53633;49.932;10.884;2023-04-22T02:23:29;8.89;86.78
66722;SHT31;53633;49.932;10.884;2023-04-22T02:25:56;8.96;86.49
66722;SHT31;53633;49.932;10.884;2023-04-22T02:28:22;9.02;86.26
66722;SHT31;53633;49.932;10.884;2023-04-22T02:30:49;8.98;85.92
66722;SHT31;53633;49.932;10.884;2023-04-22T02:33:17;8.99;86.54
66722;SHT31;53633;49.932;10.884;2023-04-22T02:35:44;9.06;86.42
66722;SHT31;53633;49.932;10.884;2023-04-22T02:38:10;9.12;86.36
66722;SHT31;53633;49.932;10.884;2023-04-22T02:40:37;9.09;86.65
66722;SHT31;53633;49.932;10.884;2023-04-22T02:43:04;9.00;86.38
66722;SHT31;53633;49.932;10.884;2023-04-22T02:45:30;8.96;86.51
66722;SHT31;53633;49.932;10.884;2023-04-22T02:47:57;8.89;86.51
66722;SHT31;53633;49.932;10.884;2023-04-22T02:50:25;8.82;86.63
66722;SHT31;53633;49.932;10.884;2023-04-22T02:52:52;8.82;86.91
66722;SHT31;53633;49.932;10.884;2023-04-22T02:55:19;8.82;86.48
66722;SHT31;53633;49.932;10.884;2023-04-22T02:57:45;8.79;86.43
66722;SHT31;53633;49.932;10.884;2023-04-22T03:00:12;8.78;86.05
66722;SHT31;53633;49.932;10.884;2023-04-22T03:02:39;8.75;86.30
66722;SHT31;53633;49.932;10.884;2023-04-22T03:05:06;8.65;86.71
66722;SHT31;53633;49.932;10.884;2023-04-22T03:07:34;8.60;86.58
66722;SHT31;53633;49.932;10.884;2023-04-22T03:10:01;8.55;86.16
66722;SHT31;53633;49.932;10.884;2023-04-22T03:12:28;8.54;87.18
66722;SHT31;53633;49.932;10.884;2023-04-22T03:14:54;8.62;87.08
66722;SHT31;53633;49.932;10.884;2023-04-22T03:17:35;8.64;86.69
66722;SHT31;53633;49.932;10.884;2023-04-22T03:20:01;8.71;86.63
66722;SHT31;53633;49.932;10.884;2023-04-22T03:22:28;8.60;86.66
66722;SHT31;53633;49.932;10.884;2023-04-22T03:24:56;8.48;87.16
66722;SHT31;53633;49.932;10.884;2023-04-22T03:27:23;8.48;87.77
66722;SHT31;53633;49.932;10.884;2023-04-22T03:29:49;8.48;87.99
66722;SHT31;53633;49.932;10.884;2023-04-22T03:32:16;8.47;88.65
66722;SHT31;53633;49.932;10.884;2023-04-22T03:34:42;8.40;89.17
66722;SHT31;53633;49.932;10.884;2023-04-22T03:37:09;8.38;88.88
66722;SHT31;53633;49.932;10.884;2023-04-22T03:39:36;8.27;88.97
66722;SHT31;53633;49.932;10.884;2023-04-22T03:42:04;8.22;89.47
66722;SHT31;53633;49.932;10.884;2023-04-22T03:44:31;8.09;89.36
66722;SHT31;53633;49.932;10.884;2023-04-22T03:46:57;8.00;89.41
66722;SHT31;53633;49.932;10.884;2023-04-22T03:49:24;8.13;89.46
66722;SHT31;53633;49.932;10.884;2023-04-22T03:51:51;8.09;89.24
66722;SHT31;53633;49.932;10.884;2023-04-22T03:54:18;7.97;89.02
66722;SHT31;53633;49.932;10.884;2023-04-22T03:56:44;7.90;89.79
66722;SHT31;53633;49.932;10.884;2023-04-22T03:59:13;7.83;89.98
66722;SHT31;53633;49.932;10.884;2023-04-22T04:01:39;8.00;89.45
66722;SHT31;53633;49.932;10.884;2023-04-22T04:04:06;8.07;88.91
66722;SHT31;53633;49.932;10.884;2023-04-22T04:06:33;8.27;88.59
66722;SHT31;53633;49.932;10.884;2023-04-22T04:09:00;8.14;88.70
66722;SHT31;53633;49.932;10.884;2023-04-22T04:11:26;8.14;88.71
66722;SHT31;53633;49.932;10.884;2023-04-22T04:13:53;8.16;88.57
66722;SHT31;53633;49.932;10.884;2023-04-22T04:16:21;8.34;88.22
66722;SHT31;53633;49.932;10.884;2023-04-22T04:18:48;8.48;87.60
66722;SHT31;53633;49.932;10.884;2023-04-22T04:21:15;8.36;87.68
66722;SHT31;53633;49.932;10.884;2023-04-22T04:23:41;8.37;87.63
66722;SHT31;53633;49.932;10.884;2023-04-22T04:26:08;8.34;87.43
66722;SHT31;53633;49.932;10.884;2023-04-22T04:28:35;8.34;87.40
66722;SHT31;53633;49.932;10.884;2023-04-22T04:31:01;8.34;87.42
66722;SHT31;53633;49.932;10.884;2023-04-22T04:33:30;8.23;87.71
66722;SHT31;53633;49.932;10.884;2023-04-22T04:35:59;8.37;87.15
66722;SHT31;53633;49.932;10.884;2023-04-22T04:38:26;8.44;86.75
66722;SHT31;53633;49.932;10.884;2023-04-22T04:40:52;8.58;86.36
66722;SHT31;53633;49.932;10.884;2023-04-22T04:43:19;8.51;86.90
66722;SHT31;53633;49.932;10.884;2023-04-22T04:45:46;8.58;86.55
66722;SHT31;53633;49.932;10.884;2023-04-22T04:48:14;8.83;85.95
66722;SHT31;53633;49.932;10.884;2023-04-22T04:50:43;8.69;86.47
66722;SHT31;53633;49.932;10.884;2023-04-22T04:53:09;8.67;86.71
66722;SHT31;53633;49.932;10.884;2023-04-22T04:55:37;8.73;86.41
66722;SHT31;53633;49.932;10.884;2023-04-22T04:58:03;8.85;85.99
66722;SHT31;53633;49.932;10.884;2023-04-22T05:00:30;8.93;85.19
66722;SHT31;53633;49.932;10.884;2023-04-22T05:02:57;8.78;85.73
66722;SHT31;53633;49.932;10.884;2023-04-22T05:05:23;8.95;85.64
66722;SHT31;53633;49.932;10.884;2023-04-22T05:07:51;9.22;84.49
66722;SHT31;53633;49.932;10.884;2023-04-22T05:10:18;9.45;83.81
66722;SHT31;53633;49.932;10.884;2023-04-22T05:12:45;9.40;84.29
66722;SHT31;53633;49.932;10.884;2023-04-22T05:15:11;9.34;84.84
66722;SHT31;53633;49.932;10.884;2023-04-22T05:17:38;9.64;84.20
66722;SHT31;53633;49.932;10.884;2023-04-22T05:20:06;10.16;82.39
66722;SHT31;53633;49.932;10.884;2023-04-22T05:22:33;11.54;79.16
66722;SHT31;53633;49.932;10.884;2023-04-22T05:25:01;13.73;72.33
66722;SHT31;53633;49.932;10.884;2023-04-22T05:27:28;15.41;66.06
66722;SHT31;53633;49.932;10.884;2023-04-22T05:29:55;16.24;62.12
66722;SHT31;53633;49.932;10.884;2023-04-22T05:32:21;15.83;62.40
66722;SHT31;53633;49.932;10.884;2023-04-22T05:34:48;15.82;62.79
66722;SHT31;53633;49.932;10.884;2023-04-22T05:37:15;16.73;60.99
66722;SHT31;53633;49.932;10.884;2023-04-22T05:39:41;18.09;57.06
66722;SHT31;53633;49.932;10.884;2023-04-22T05:42:09;18.82;55.05
66722;SHT31;53633;49.932;10.884;2023-04-22T05:44:36;19.12;53.71
66722;SHT31;53633;49.932;10.884;2023-04-22T05:47:03;19.03;53.09
66722;SHT31;53633;49.932;10.884;2023-04-22T05:49:29;19.26;53.13
66722;SHT31;53633;49.932;10.884;2023-04-22T05:51:56;18.92;53.76
66722;SHT31;53633;49.932;10.884;2023-04-22T05:54:22;18.20;55.20
66722;SHT31;53633;49.932;10.884;2023-04-22T05:56:49;18.57;54.83
66722;SHT31;53633;49.932;10.884;2023-04-22T05:59:17;19.26;53.29
66722;SHT31;53633;49.932;10.884;2023-04-22T06:01:47;19.75;52.70
66722;SHT31;53633;49.932;10.884;2023-04-22T06:04:13;19.99;52.03
66722;SHT31;53633;49.932;10.884;2023-04-22T06:06:40;20.64;49.87
66722;SHT31;53633;49.932;10.884;2023-04-22T06:09:07;20.63;50.04
66722;SHT31;53633;49.932;10.884;2023-04-22T06:11:34;20.95;48.55
66722;SHT31;53633;49.932;10.884;2023-04-22T06:14:00;21.91;46.75
66722;SHT31;53633;49.932;10.884;2023-04-22T06:16:28;22.18;46.47
66722;SHT31;53633;49.932;10.884;2023-04-22T06:18:55;21.62;46.40
66722;SHT31;53633;49.932;10.884;2023-04-22T06:21:22;20.76;47.93
66722;SHT31;53633;49.932;10.884;2023-04-22T06:23:48;20.22;50.28
66722;SHT31;53633;49.932;10.884;2023-04-22T06:26:15;19.75;51.20
66722;SHT31;53633;49.932;10.884;2023-04-22T06:28:41;19.60;51.22
66722;SHT31;53633;49.932;10.884;2023-04-22T06:31:08;19.43;51.42
66722;SHT31;53633;49.932;10.884;2023-04-22T06:33:36;18.89;51.07
66722;SHT31;53633;49.932;10.884;2023-04-22T06:36:04;18.96;51.97
66722;SHT31;53633;49.932;10.884;2023-04-22T06:38:30;19.54;51.71
66722;SHT31;53633;49.932;10.884;2023-04-22T06:40:57;20.36;49.89
66722;SHT31;53633;49.932;10.884;2023-04-22T06:43:24;20.95;48.04
66722;SHT31;53633;49.932;10.884;2023-04-22T06:45:50;21.46;46.63
66722;SHT31;53633;49.932;10.884;2023-04-22T06:48:17;21.98;46.74
66722;SHT31;53633;49.932;10.884;2023-04-22T06:50:45;22.19;45.36
66722;SHT31;53633;49.932;10.884;2023-04-22T06:53:12;22.51;45.31
66722;SHT31;53633;49.932;10.884;2023-04-22T06:55:38;22.60;43.90
66722;SHT31;53633;49.932;10.884;2023-04-22T06:58:05;22.22;45.09
66722;SHT31;53633;49.932;10.884;2023-04-22T07:00:32;22.32;43.60
66722;SHT31;53633;49.932;10.884;2023-04-22T07:02:58;21.25;46.20
66722;SHT31;53633;49.932;10.884;2023-04-22T07:05:25;21.62;46.10
66722;SHT31;53633;49.932;10.884;2023-04-22T07:07:53;21.67;44.91
66722;SHT31;53633;49.932;10.884;2023-04-22T07:10:20;21.79;43.84
66722;SHT31;53633;49.932;10.884;2023-04-22T07:12:46;22.31;43.69
66722;SHT31;53633;49.932;10.884;2023-04-22T07:15:13;22.51;41.98
66722;SHT31;53633;49.932;10.884;2023-04-22T07:17:39;21.35;41.33
66722;SHT31;53633;49.932;10.884;2023-04-22T07:20:07;21.53;41.63
66722;SHT31;53633;49.932;10.884;2023-04-22T07:22:34;22.01;41.03
66722;SHT31;53633;49.932;10.884;2023-04-22T07:25:02;21.35;42.15
66722;SHT31;53633;49.932;10.884;2023-04-22T07:27:29;21.19;42.52
66722;SHT31;53633;49.932;10.884;2023-04-22T07:29:55;21.12;42.13
66722;SHT31;53633;49.932;10.884;2023-04-22T07:32:22;20.16;43.62
66722;SHT31;53633;49.932;10.884;2023-04-22T07:34:48;19.71;44.63
66722;SHT31;53633;49.932;10.884;2023-04-22T07:37:15;20.13;44.09
66722;SHT31;53633;49.932;10.884;2023-04-22T07:39:42;20.42;43.99
66722;SHT31;53633;49.932;10.884;2023-04-22T07:42:10;20.97;42.99
66722;SHT31;53633;49.932;10.884;2023-04-22T07:44:36;21.76;41.53
66722;SHT31;53633;49.932;10.884;2023-04-22T07:47:05;22.28;40.20
66722;SHT31;53633;49.932;10.884;2023-04-22T07:49:31;22.66;38.88
66722;SHT31;53633;49.932;10.884;2023-04-22T07:51:58;22.55;39.23
66722;SHT31;53633;49.932;10.884;2023-04-22T07:54:25;22.82;38.55
66722;SHT31;53633;49.932;10.884;2023-04-22T07:56:51;22.27;39.94
66722;SHT31;53633;49.932;10.884;2023-04-22T07:59:19;22.19;40.53
66722;SHT31;53633;49.932;10.884;2023-04-22T08:01:46;22.51;39.77
66722;SHT31;53633;49.932;10.884;2023-04-22T08:04:12;23.02;39.03
66722;SHT31;53633;49.932;10.884;2023-04-22T08:06:40;22.87;38.68
66722;SHT31;53633;49.932;10.884;2023-04-22T08:09:06;23.40;37.32
66722;SHT31;53633;49.932;10.884;2023-04-22T08:11:33;24.33;37.10
66722;SHT31;53633;49.932;10.884;2023-04-22T08:14:00;23.83;37.44
66722;SHT31;53633;49.932;10.884;2023-04-22T08:16:28;23.89;38.05
66722;SHT31;53633;49.932;10.884;2023-04-22T08:18:54;24.05;37.25
66722;SHT31;53633;49.932;10.884;2023-04-22T08:21:21;24.06;37.21
66722;SHT31;53633;49.932;10.884;2023-04-22T08:23:48;24.07;37.46
66722;SHT31;53633;49.932;10.884;2023-04-22T08:26:14;22.94;38.87
66722;SHT31;53633;49.932;10.884;2023-04-22T08:28:41;22.57;38.98
66722;SHT31;53633;49.932;10.884;2023-04-22T08:31:08;23.03;39.44
66722;SHT31;53633;49.932;10.884;2023-04-22T08:33:36;23.57;38.09
66722;SHT31;53633;49.932;10.884;2023-04-22T08:36:02;23.37;37.48
66722;SHT31;53633;49.932;10.884;2023-04-22T08:38:29;23.10;39.32
66722;SHT31;53633;49.932;10.884;2023-04-22T08:40:56;23.31;38.84
66722;SHT31;53633;49.932;10.884;2023-04-22T08:43:24;23.18;39.02
66722;SHT31;53633;49.932;10.884;2023-04-22T08:45:52;23.92;37.99
66722;SHT31;53633;49.932;10.884;2023-04-22T08:48:18;23.17;38.16
66722;SHT31;53633;49.932;10.884;2023-04-22T08:50:47;23.34;38.45
66722;SHT31;53633;49.932;10.884;2023-04-22T08:53:14;24.31;38.16
66722;SHT31;53633;49.932;10.884;2023-04-22T08:55:43;24.17;37.48
66722;SHT31;53633;49.932;10.884;2023-04-22T08:58:10;24.54;36.66
66722;SHT31;53633;49.932;10.884;2023-04-22T09:00:38;23.65;38.04
66722;SHT31;53633;49.932;10.884;2023-04-22T09:03:05;23.62;37.05
66722;SHT31;53633;49.932;10.884;2023-04-22T09:05:32;24.38;36.87
66722;SHT31;53633;49.932;10.884;2023-04-22T09:08:01;24.60;37.00
66722;SHT31;53633;49.932;10.884;2023-04-22T09:10:28;24.41;36.65
66722;SHT31;53633;49.932;10.884;2023-04-22T09:12:57;24.28;36.92
66722;SHT31;53633;49.932;10.884;2023-04-22T09:15:24;24.34;36.42
66722;SHT31;53633;49.932;10.884;2023-04-22T09:17:51;24.58;37.09
66722;SHT31;53633;49.932;10.884;2023-04-22T09:20:18;25.15;36.02
66722;SHT31;53633;49.932;10.884;2023-04-22T09:22:46;23.99;37.54
66722;SHT31;53633;49.932;10.884;2023-04-22T09:25:18;23.45;37.60
66722;SHT31;53633;49.932;10.884;2023-04-22T09:27:49;24.54;36.86
66722;SHT31;53633;49.932;10.884;2023-04-22T09:30:17;24.31;36.03
66722;SHT31;53633;49.932;10.884;2023-04-22T09:32:51;25.22;35.79
66722;SHT31;53633;49.932;10.884;2023-04-22T09:35:22;24.98;35.69
66722;SHT31;53633;49.932;10.884;2023-04-22T09:37:51;24.85;36.31
66722;SHT31;53633;49.932;10.884;2023-04-22T09:40:19;24.28;35.99
66722;SHT31;53633;49.932;10.884;2023-04-22T09:42:49;23.58;37.03
66722;SHT31;53633;49.932;10.884;2023-04-22T09:45:27;23.79;36.93
66722;SHT31;53633;49.932;10.884;2023-04-22T09:47:54;23.97;37.01
66722;SHT31;53633;49.932;10.884;2023-04-22T09:50:23;24.65;35.37
66722;SHT31;53633;49.932;10.884;2023-04-22T09:52:54;24.28;35.83
66722;SHT31;53633;49.932;10.884;2023-04-22T09:55:23;24.79;34.97
66722;SHT31;53633;49.932;10.884;2023-04-22T09:57:51;24.21;35.97
66722;SHT31;53633;49.932;10.884;2023-04-22T10:00:19;24.02;35.82
66722;SHT31;53633;49.932;10.884;2023-04-22T10:02:45;24.06;36.10
66722;SHT31;53633;49.932;10.884;2023-04-22T10:05:12;24.62;35.59
66722;SHT31;53633;49.932;10.884;2023-04-22T10:07:39;24.02;36.28
66722;SHT31;53633;49.932;10.884;2023-04-22T10:10:08;23.86;36.92
66722;SHT31;53633;49.932;10.884;2023-04-22T10:12:36;23.83;36.14
66722;SHT31;53633;49.932;10.884;2023-04-22T10:15:04;23.65;36.68
66722;SHT31;53633;49.932;10.884;2023-04-22T10:17:33;24.23;36.04
66722;SHT31;53633;49.932;10.884;2023-04-22T10:20:03;23.48;37.41
66722;SHT31;53633;49.932;10.884;2023-04-22T10:22:30;23.31;37.78
66722;SHT31;53633;49.932;10.884;2023-04-22T10:24:57;23.37;38.70
66722;SHT31;53633;49.932;10.884;2023-04-22T10:27:23;23.66;37.86
66722;SHT31;53633;49.932;10.884;2023-04-22T10:29:51;23.72;37.39
66722;SHT31;53633;49.932;10.884;2023-04-22T10:32:25;23.72;36.57
66722;SHT31;53633;49.932;10.884;2023-04-22T10:35:07;23.72;36.17
66722;SHT31;53633;49.932;10.884;2023-04-22T10:37:33;23.83;36.29
66722;SHT31;53633;49.932;10.884;2023-04-22T10:40:09;24.06;36.67
66722;SHT31;53633;49.932;10.884;2023-04-22T10:42:38;24.10;36.76
66722;SHT31;53633;49.932;10.884;2023-04-22T10:45:08;24.38;35.78
66722;SHT31;53633;49.932;10.884;2023-04-22T10:47:37;24.27;36.60
66722;SHT31;53633;49.932;10.884;2023-04-22T10:50:25;23.41;36.10
66722;SHT31;53633;49.932;10.884;2023-04-22T10:52:55;23.25;35.54
66722;SHT31;53633;49.932;10.884;2023-04-22T10:55:22;23.66;35.30
66722;SHT31;53633;49.932;10.884;2023-04-22T10:57:50;23.89;35.49
66722;SHT31;53633;49.932;10.884;2023-04-22T11:00:38;23.95;36.27
66722;SHT31;53633;49.932;10.884;2023-04-22T11:03:24;24.05;36.30
66722;SHT31;53633;49.932;10.884;2023-04-22T11:06:12;23.89;36.88
66722;SHT31;53633;49.932;10.884;2023-04-22T11:08:43;24.28;36.99
66722;SHT31;53633;49.932;10.884;2023-04-22T11:11:10;23.92;36.75
66722;SHT31;53633;49.932;10.884;2023-04-22T11:13:37;23.59;36.74
66722;SHT31;53633;49.932;10.884;2023-04-22T11:16:07;23.28;37.19
66722;SHT31;53633;49.932;10.884;2023-04-22T11:18:33;23.15;37.20
66722;SHT31;53633;49.932;10.884;2023-04-22T11:21:03;23.02;37.68
66722;SHT31;53633;49.932;10.884;2023-04-22T11:23:30;22.96;37.69
66722;SHT31;53633;49.932;10.884;2023-04-22T11:25:58;23.04;37.54
66722;SHT31;53633;49.932;10.884;2023-04-22T11:28:25;22.93;38.12
66722;SHT31;53633;49.932;10.884;2023-04-22T11:31:00;22.57;38.66
66722;SHT31;53633;49.932;10.884;2023-04-22T11:33:28;22.38;38.04
66722;SHT31;53633;49.932;10.884;2023-04-22T11:35:55;22.44;38.78
66722;SHT31;53633;49.932;10.884;2023-04-22T11:38:21;22.51;38.06
66722;SHT31;53633;49.932;10.884;2023-04-22T11:40:48;22.46;38.10
66722;SHT31;53633;49.932;10.884;2023-04-22T11:43:15;23.03;37.40
66722;SHT31;53633;49.932;10.884;2023-04-22T11:45:42;23.07;37.08
66722;SHT31;53633;49.932;10.884;2023-04-22T11:48:09;23.03;36.69
66722;SHT31;53633;49.932;10.884;2023-04-22T11:50:39;23.20;37.18
66722;SHT31;53633;49.932;10.884;2023-04-22T11:53:12;23.38;36.45
66722;SHT31;53633;49.932;10.884;2023-04-22T11:55:40;23.35;36.88
66722;SHT31;53633;49.932;10.884;2023-04-22T11:58:08;23.37;36.99
66722;SHT31;53633;49.932;10.884;2023-04-22T12:00:37;23.20;36.76
66722;SHT31;53633;49.932;10.884;2023-04-22T12:03:06;23.07;36.57
66722;SHT31;53633;49.932;10.884;2023-04-22T12:05:36;23.13;36.54
66722;SHT31;53633;49.932;10.884;2023-04-22T12:08:06;23.06;36.60
66722;SHT31;53633;49.932;10.884;2023-04-22T12:10:32;23.58;36.90
66722;SHT31;53633;49.932;10.884;2023-04-22T12:12:59;23.62;35.72
66722;SHT31;53633;49.932;10.884;2023-04-22T12:15:36;23.44;37.11
66722;SHT31;53633;49.932;10.884;2023-04-22T12:18:03;23.44;37.48
66722;SHT31;53633;49.932;10.884;2023-04-22T12:20:31;23.63;36.44
66722;SHT31;53633;49.932;10.884;2023-04-22T12:22:58;23.68;36.57
66722;SHT31;53633;49.932;10.884;2023-04-22T12:25:26;24.21;36.42
66722;SHT31;53633;49.932;10.884;2023-04-22T12:27:53;24.14;36.35
66722;SHT31;53633;49.932;10.884;2023-04-22T12:30:19;23.55;35.64
66722;SHT31;53633;49.932;10.884;2023-04-22T12:32:46;23.52;36.51
66722;SHT31;53633;49.932;10.884;2023-04-22T12:35:12;23.49;36.71
66722;SHT31;53633;49.932;10.884;2023-04-22T12:37:39;23.35;37.25
66722;SHT31;53633;49.932;10.884;2023-04-22T12:40:07;23.54;37.14
66722;SHT31;53633;49.932;10.884;2023-04-22T12:42:35;23.47;37.13
66722;SHT31;53633;49.932;10.884;2023-04-22T12:45:03;23.15;37.39
66722;SHT31;53633;49.932;10.884;2023-04-22T12:47:30;23.54;37.59
66722;SHT31;53633;49.932;10.884;2023-04-22T12:49:56;23.52;37.52
66722;SHT31;53633;49.932;10.884;2023-04-22T12:52:23;23.69;37.74
66722;SHT31;53633;49.932;10.884;2023-04-22T12:54:50;23.80;37.21
66722;SHT31;53633;49.932;10.884;2023-04-22T12:57:16;23.73;37.30
66722;SHT31;53633;49.932;10.884;2023-04-22T12:59:45;23.37;36.90
66722;SHT31;53633;49.932;10.884;2023-04-22T13:02:11;23.22;37.43
66722;SHT31;53633;49.932;10.884;2023-04-22T13:04:38;23.00;37.01
66722;SHT31;53633;49.932;10.884;2023-04-22T13:07:05;23.20;37.87
66722;SHT31;53633;49.932;10.884;2023-04-22T13:09:32;23.15;36.92
66722;SHT31;53633;49.932;10.884;2023-04-22T13:11:58;23.22;38.16
66722;SHT31;53633;49.932;10.884;2023-04-22T13:14:25;23.11;38.03
66722;SHT31;53633;49.932;10.884;2023-04-22T13:16:53;23.00;37.72
66722;SHT31;53633;49.932;10.884;2023-04-22T13:19:20;23.17;37.97
66722;SHT31;53633;49.932;10.884;2023-04-22T13:21:46;23.40;37.50
66722;SHT31;53633;49.932;10.884;2023-04-22T13:24:13;23.45;37.47
66722;SHT31;53633;49.932;10.884;2023-04-22T13:26:40;23.47;36.66
66722;SHT31;53633;49.932;10.884;2023-04-22T13:29:06;23.51;36.26
66722;SHT31;53633;49.932;10.884;2023-04-22T13:31:33;23.90;35.01
66722;SHT31;53633;49.932;10.884;2023-04-22T13:34:01;23.89;34.73
66722;SHT31;53633;49.932;10.884;2023-04-22T13:36:27;23.87;33.83
66722;SHT31;53633;49.932;10.884;2023-04-22T13:38:54;23.95;34.15
66722;SHT31;53633;49.932;10.884;2023-04-22T13:41:22;23.97;34.14
66722;SHT31;53633;49.932;10.884;2023-04-22T13:43:49;23.89;33.77
66722;SHT31;53633;49.932;10.884;2023-04-22T13:46:15;23.87;33.85
66722;SHT31;53633;49.932;10.884;2023-04-22T13:48:42;23.99;34.13
66722;SHT31;53633;49.932;10.884;2023-04-22T13:51:10;23.80;34.71
66722;SHT31;53633;49.932;10.884;2023-04-22T13:53:36;23.82;34.41
66722;SHT31;53633;49.932;10.884;2023-04-22T13:56:03;23.65;34.85
66722;SHT31;53633;49.932;10.884;2023-04-22T13:58:30;23.68;35.06
66722;SHT31;53633;49.932;10.884;2023-04-22T14:00:57;23.69;34.29
66722;SHT31;53633;49.932;10.884;2023-04-22T14:03:23;23.93;34.65
66722;SHT31;53633;49.932;10.884;2023-04-22T14:05:50;23.85;34.14
66722;SHT31;53633;49.932;10.884;2023-04-22T14:08:18;23.80;34.23
66722;SHT31;53633;49.932;10.884;2023-04-22T14:10:45;23.80;34.81
66722;SHT31;53633;49.932;10.884;2023-04-22T14:13:12;23.85;34.21
66722;SHT31;53633;49.932;10.884;2023-04-22T14:15:38;23.97;35.24
66722;SHT31;53633;49.932;10.884;2023-04-22T14:18:05;24.12;34.15
66722;SHT31;53633;49.932;10.884;2023-04-22T14:20:32;24.00;34.12
66722;SHT31;53633;49.932;10.884;2023-04-22T14:22:58;23.99;33.69
66722;SHT31;53633;49.932;10.884;2023-04-22T14:25:26;23.97;33.14
66722;SHT31;53633;49.932;10.884;2023-04-22T14:27:53;23.96;33.92
66722;SHT31;53633;49.932;10.884;2023-04-22T14:30:20;24.05;33.61
66722;SHT31;53633;49.932;10.884;2023-04-22T14:32:46;24.17;34.46
66722;SHT31;53633;49.932;10.884;2023-04-22T14:35:13;24.37;34.24
66722;SHT31;53633;49.932;10.884;2023-04-22T14:37:40;24.33;33.85
66722;SHT31;53633;49.932;10.884;2023-04-22T14:40:07;24.05;34.48
66722;SHT31;53633;49.932;10.884;2023-04-22T14:42:36;23.99;34.92
66722;SHT31;53633;49.932;10.884;2023-04-22T14:45:03;23.96;35.52
66722;SHT31;53633;49.932;10.884;2023-04-22T14:47:30;23.85;36.37
66722;SHT31;53633;49.932;10.884;2023-04-22T14:49:56;23.73;36.23
66722;SHT31;53633;49.932;10.884;2023-04-22T14:52:23;23.63;36.03
66722;SHT31;53633;49.932;10.884;2023-04-22T14:54:50;23.63;37.10
66722;SHT31;53633;49.932;10.884;2023-04-22T14:57:17;23.55;37.02
66722;SHT31;53633;49.932;10.884;2023-04-22T14:59:45;23.55;36.90
66722;SHT31;53633;49.932;10.884;2023-04-22T15:02:13;23.55;36.51
66722;SHT31;53633;49.932;10.884;2023-04-22T15:04:40;23.57;37.37
66722;SHT31;53633;49.932;10.884;2023-04-22T15:07:07;23.59;37.11
66722;SHT31;53633;49.932;10.884;2023-04-22T15:09:34;23.44;37.08
66722;SHT31;53633;49.932;10.884;2023-04-22T15:12:01;23.31;37.39
66722;SHT31;53633;49.932;10.884;2023-04-22T15:14:27;23.24;37.28
66722;SHT31;53633;49.932;10.884;2023-04-22T15:16:55;23.13;37.41
66722;SHT31;53633;49.932;10.884;2023-04-22T15:19:22;23.08;37.92
66722;SHT31;53633;49.932;10.884;2023-04-22T15:21:49;23.10;37.74